Serifos, Greece
Current Conditions -  °F | °C
As of 4:50 PM on Thursday 23 Oct 2014 (Local Time) from LGSO Reporting Station
Scattered Clouds Scattered Clouds  
Wind Chill: 73°   Ceiling: Unl
Heat Index: 73°   Visibility: 6mi
Dew Point: 54°   Wind: 20mph
Humidity: 50%   Direction: 240°WSW
Pressure: 29.65"   Gusts: NA
Location:  37.15°N, 24.5°E
Report Text: LGSO 231350Z 24017KT 210V270 9999 FEW018 SCT180 23/12 Q1004
Loading
Personal Weather Stations






























Interactive Weather Map
Tropical Storm Tracking
New forecast layout! Learn more

10-Day Weather Forecast

Advertisements
Track Severe Weather on mobile